sensor_id;sensor_type;location;lat;lon;timestamp;temperature;humidity
3842;DHT22;1936;47.074;15.336;2022-08-19T00:00:43;18.40;99.90
3842;DHT22;1936;47.074;15.336;2022-08-19T00:02:47;18.30;99.90
3842;DHT22;1936;47.074;15.336;2022-08-19T00:04:52;18.40;99.90
3842;DHT22;1936;47.074;15.336;2022-08-19T00:06:58;18.40;99.90
3842;DHT22;1936;47.074;15.336;2022-08-19T00:09:04;18.30;99.90
3842;DHT22;1936;47.074;15.336;2022-08-19T00:11:08;18.40;99.90
3842;DHT22;1936;47.074;15.336;2022-08-19T00:15:23;18.30;99.90
3842;DHT22;1936;47.074;15.336;2022-08-19T00:17:27;18.20;99.90
3842;DHT22;1936;47.074;15.336;2022-08-19T00:19:32;18.30;99.90
3842;DHT22;1936;47.074;15.336;2022-08-19T00:21:36;18.40;99.90
3842;DHT22;1936;47.074;15.336;2022-08-19T00:23:44;18.40;99.90
3842;DHT22;1936;47.074;15.336;2022-08-19T00:27:53;18.50;99.90
3842;DHT22;1936;47.074;15.336;2022-08-19T00:29:57;18.40;99.90
3842;DHT22;1936;47.074;15.336;2022-08-19T00:32:04;18.30;99.90
3842;DHT22;1936;47.074;15.336;2022-08-19T00:34:13;18.30;99.90
3842;DHT22;1936;47.074;15.336;2022-08-19T00:36:17;18.30;99.90
3842;DHT22;1936;47.074;15.336;2022-08-19T00:38:22;18.30;99.90
3842;DHT22;1936;47.074;15.336;2022-08-19T00:40:42;18.20;99.90
3842;DHT22;1936;47.074;15.336;2022-08-19T00:42:48;18.30;99.90
3842;DHT22;1936;47.074;15.336;2022-08-19T00:44:55;18.30;99.90
3842;DHT22;1936;47.074;15.336;2022-08-19T00:46:59;18.40;99.90
3842;DHT22;1936;47.074;15.336;2022-08-19T00:51:18;18.40;99.90
3842;DHT22;1936;47.074;15.336;2022-08-19T00:53:26;18.40;99.90
3842;DHT22;1936;47.074;15.336;2022-08-19T00:55:32;18.30;99.90
3842;DHT22;1936;47.074;15.336;2022-08-19T00:57:38;18.30;99.90
3842;DHT22;1936;47.074;15.336;2022-08-19T00:59:48;18.30;99.90
3842;DHT22;1936;47.074;15.336;2022-08-19T01:02:03;18.20;99.90
3842;DHT22;1936;47.074;15.336;2022-08-19T01:06:13;18.30;99.90
3842;DHT22;1936;47.074;15.336;2022-08-19T01:08:23;18.20;99.90
3842;DHT22;1936;47.074;15.336;2022-08-19T01:10:31;18.40;99.90
3842;DHT22;1936;47.074;15.336;2022-08-19T01:12:39;18.50;99.90
3842;DHT22;1936;47.074;15.336;2022-08-19T01:14:45;18.50;99.90
3842;DHT22;1936;47.074;15.336;2022-08-19T01:16:49;18.50;99.90
3842;DHT22;1936;47.074;15.336;2022-08-19T01:21:02;18.50;99.90
3842;DHT22;1936;47.074;15.336;2022-08-19T01:23:12;18.50;99.90
3842;DHT22;1936;47.074;15.336;2022-08-19T01:25:19;18.60;99.90
3842;DHT22;1936;47.074;15.336;2022-08-19T01:27:28;18.60;99.90
3842;DHT22;1936;47.074;15.336;2022-08-19T01:29:45;18.70;99.90
3842;DHT22;1936;47.074;15.336;2022-08-19T01:33:56;18.60;99.90
3842;DHT22;1936;47.074;15.336;2022-08-19T01:36:06;18.60;99.90
3842;DHT22;1936;47.074;15.336;2022-08-19T01:38:22;18.60;99.90
3842;DHT22;1936;47.074;15.336;2022-08-19T01:40:29;18.50;99.90
3842;DHT22;1936;47.074;15.336;2022-08-19T01:42:33;18.50;99.90
3842;DHT22;1936;47.074;15.336;2022-08-19T01:44:38;18.50;99.90
3842;DHT22;1936;47.074;15.336;2022-08-19T01:46:43;18.50;99.90
3842;DHT22;1936;47.074;15.336;2022-08-19T01:48:47;18.30;99.90
3842;DHT22;1936;47.074;15.336;2022-08-19T01:50:51;18.30;99.90
3842;DHT22;1936;47.074;15.336;2022-08-19T01:52:55;18.20;99.90
3842;DHT22;1936;47.074;15.336;2022-08-19T01:55:13;18.10;99.90
3842;DHT22;1936;47.074;15.336;2022-08-19T01:57:17;18.10;99.90
3842;DHT22;1936;47.074;15.336;2022-08-19T01:59:22;18.10;99.90
3842;DHT22;1936;47.074;15.336;2022-08-19T02:01:26;18.20;99.90
3842;DHT22;1936;47.074;15.336;2022-08-19T02:03:33;18.20;99.90
3842;DHT22;1936;47.074;15.336;2022-08-19T02:05:39;18.20;99.90
3842;DHT22;1936;47.074;15.336;2022-08-19T02:07:44;18.20;99.90
3842;DHT22;1936;47.074;15.336;2022-08-19T02:09:49;18.10;99.90
3842;DHT22;1936;47.074;15.336;2022-08-19T02:13:59;17.90;99.90
3842;DHT22;1936;47.074;15.336;2022-08-19T02:16:04;17.80;99.90
3842;DHT22;1936;47.074;15.336;2022-08-19T02:18:08;17.80;99.90
3842;DHT22;1936;47.074;15.336;2022-08-19T02:20:15;17.90;99.90
3842;DHT22;1936;47.074;15.336;2022-08-19T02:22:19;18.10;99.90
3842;DHT22;1936;47.074;15.336;2022-08-19T02:24:23;18.40;99.90
3842;DHT22;1936;47.074;15.336;2022-08-19T02:26:27;18.60;99.90
3842;DHT22;1936;47.074;15.336;2022-08-19T02:28:33;18.70;99.90
3842;DHT22;1936;47.074;15.336;2022-08-19T02:30:38;18.90;99.90
3842;DHT22;1936;47.074;15.336;2022-08-19T02:32:44;18.90;99.90
3842;DHT22;1936;47.074;15.336;2022-08-19T02:34:47;18.90;99.90
3842;DHT22;1936;47.074;15.336;2022-08-19T02:36:52;18.80;99.90
3842;DHT22;1936;47.074;15.336;2022-08-19T02:38:55;18.80;99.90
3842;DHT22;1936;47.074;15.336;2022-08-19T02:41:04;18.70;99.90
3842;DHT22;1936;47.074;15.336;2022-08-19T02:43:09;18.70;99.90
3842;DHT22;1936;47.074;15.336;2022-08-19T02:45:16;18.70;99.90
3842;DHT22;1936;47.074;15.336;2022-08-19T02:47:19;18.80;99.90
3842;DHT22;1936;47.074;15.336;2022-08-19T02:49:25;18.70;99.90
3842;DHT22;1936;47.074;15.336;2022-08-19T02:51:31;18.70;99.90
3842;DHT22;1936;47.074;15.336;2022-08-19T02:53:37;18.70;99.90
3842;DHT22;1936;47.074;15.336;2022-08-19T02:55:46;18.70;99.90
3842;DHT22;1936;47.074;15.336;2022-08-19T02:57:50;18.80;99.90
3842;DHT22;1936;47.074;15.336;2022-08-19T02:59:54;18.80;99.90
3842;DHT22;1936;47.074;15.336;2022-08-19T03:01:59;18.80;99.90
3842;DHT22;1936;47.074;15.336;2022-08-19T03:04:09;18.80;99.90
3842;DHT22;1936;47.074;15.336;2022-08-19T03:06:16;18.80;99.90
3842;DHT22;1936;47.074;15.336;2022-08-19T03:12:30;18.80;99.90
3842;DHT22;1936;47.074;15.336;2022-08-19T03:14:34;18.80;99.90
3842;DHT22;1936;47.074;15.336;2022-08-19T03:16:44;18.80;99.90
3842;DHT22;1936;47.074;15.336;2022-08-19T03:18:51;18.80;99.90
3842;DHT22;1936;47.074;15.336;2022-08-19T03:21:15;18.90;99.90
3842;DHT22;1936;47.074;15.336;2022-08-19T03:23:19;18.90;99.90
3842;DHT22;1936;47.074;15.336;2022-08-19T03:25:24;18.70;99.90
3842;DHT22;1936;47.074;15.336;2022-08-19T03:27:28;18.60;99.90
3842;DHT22;1936;47.074;15.336;2022-08-19T03:29:37;18.60;99.90
3842;DHT22;1936;47.074;15.336;2022-08-19T03:33:55;18.60;99.90
3842;DHT22;1936;47.074;15.336;2022-08-19T03:36:05;18.80;99.90
3842;DHT22;1936;47.074;15.336;2022-08-19T03:38:08;18.80;99.90
3842;DHT22;1936;47.074;15.336;2022-08-19T03:40:13;18.80;99.90
3842;DHT22;1936;47.074;15.336;2022-08-19T03:42:17;18.80;99.90
3842;DHT22;1936;47.074;15.336;2022-08-19T03:44:44;18.90;99.90
3842;DHT22;1936;47.074;15.336;2022-08-19T03:46:49;19.00;99.90
3842;DHT22;1936;47.074;15.336;2022-08-19T03:48:58;19.00;99.90
3842;DHT22;1936;47.074;15.336;2022-08-19T03:51:05;19.00;99.90
3842;DHT22;1936;47.074;15.336;2022-08-19T03:53:08;19.00;99.90
3842;DHT22;1936;47.074;15.336;2022-08-19T03:55:14;19.10;99.90
3842;DHT22;1936;47.074;15.336;2022-08-19T03:57:17;19.20;99.90
3842;DHT22;1936;47.074;15.336;2022-08-19T03:59:28;19.20;99.90
3842;DHT22;1936;47.074;15.336;2022-08-19T04:01:32;19.20;99.90
3842;DHT22;1936;47.074;15.336;2022-08-19T04:03:37;19.20;99.90
3842;DHT22;1936;47.074;15.336;2022-08-19T04:05:43;19.10;99.90
3842;DHT22;1936;47.074;15.336;2022-08-19T04:07:46;19.10;99.90
3842;DHT22;1936;47.074;15.336;2022-08-19T04:09:50;19.20;99.90
3842;DHT22;1936;47.074;15.336;2022-08-19T04:11:56;19.20;99.90
3842;DHT22;1936;47.074;15.336;2022-08-19T04:14:01;19.40;99.90
3842;DHT22;1936;47.074;15.336;2022-08-19T04:16:07;19.50;99.90
3842;DHT22;1936;47.074;15.336;2022-08-19T04:18:13;19.50;99.90
3842;DHT22;1936;47.074;15.336;2022-08-19T04:20:17;19.60;99.90
3842;DHT22;1936;47.074;15.336;2022-08-19T04:22:22;19.70;99.90
3842;DHT22;1936;47.074;15.336;2022-08-19T04:24:29;19.70;99.90
3842;DHT22;1936;47.074;15.336;2022-08-19T04:26:36;19.70;99.90
3842;DHT22;1936;47.074;15.336;2022-08-19T04:28:43;19.70;99.90
3842;DHT22;1936;47.074;15.336;2022-08-19T04:30:49;19.80;99.90
3842;DHT22;1936;47.074;15.336;2022-08-19T04:32:56;19.90;99.90
3842;DHT22;1936;47.074;15.336;2022-08-19T04:35:00;20.00;99.90
3842;DHT22;1936;47.074;15.336;2022-08-19T04:37:19;19.90;99.90
3842;DHT22;1936;47.074;15.336;2022-08-19T04:39:27;20.00;99.90
3842;DHT22;1936;47.074;15.336;2022-08-19T04:41:46;19.90;99.90
3842;DHT22;1936;47.074;15.336;2022-08-19T04:44:07;19.80;99.90
3842;DHT22;1936;47.074;15.336;2022-08-19T04:46:12;19.70;99.90
3842;DHT22;1936;47.074;15.336;2022-08-19T04:48:36;19.60;99.90
3842;DHT22;1936;47.074;15.336;2022-08-19T04:50:50;19.60;99.90
3842;DHT22;1936;47.074;15.336;2022-08-19T04:52:59;19.50;99.90
3842;DHT22;1936;47.074;15.336;2022-08-19T04:55:12;19.50;99.90
3842;DHT22;1936;47.074;15.336;2022-08-19T04:57:17;19.40;99.90
3842;DHT22;1936;47.074;15.336;2022-08-19T04:59:24;19.40;99.90
3842;DHT22;1936;47.074;15.336;2022-08-19T05:01:28;19.50;99.90
3842;DHT22;1936;47.074;15.336;2022-08-19T05:03:34;19.70;99.90
3842;DHT22;1936;47.074;15.336;2022-08-19T05:05:39;19.70;99.90
3842;DHT22;1936;47.074;15.336;2022-08-19T05:07:46;19.80;99.90
3842;DHT22;1936;47.074;15.336;2022-08-19T05:09:50;19.80;99.90
3842;DHT22;1936;47.074;15.336;2022-08-19T05:12:02;19.80;99.90
3842;DHT22;1936;47.074;15.336;2022-08-19T05:14:08;19.90;99.90
3842;DHT22;1936;47.074;15.336;2022-08-19T05:16:15;20.10;99.90
3842;DHT22;1936;47.074;15.336;2022-08-19T05:18:19;20.20;99.90
3842;DHT22;1936;47.074;15.336;2022-08-19T05:20:40;20.20;99.90
3842;DHT22;1936;47.074;15.336;2022-08-19T05:23:01;20.20;99.90
3842;DHT22;1936;47.074;15.336;2022-08-19T05:25:23;20.20;99.90
3842;DHT22;1936;47.074;15.336;2022-08-19T05:27:29;20.20;99.90
3842;DHT22;1936;47.074;15.336;2022-08-19T05:29:34;20.20;99.90
3842;DHT22;1936;47.074;15.336;2022-08-19T05:31:39;20.40;99.90
3842;DHT22;1936;47.074;15.336;2022-08-19T05:33:45;20.50;99.90
3842;DHT22;1936;47.074;15.336;2022-08-19T05:35:49;20.50;99.90
3842;DHT22;1936;47.074;15.336;2022-08-19T05:37:53;20.60;99.90
3842;DHT22;1936;47.074;15.336;2022-08-19T05:40:00;20.70;99.90
3842;DHT22;1936;47.074;15.336;2022-08-19T05:42:08;20.70;99.90
3842;DHT22;1936;47.074;15.336;2022-08-19T05:44:15;20.80;99.90
3842;DHT22;1936;47.074;15.336;2022-08-19T05:46:19;21.00;99.90
3842;DHT22;1936;47.074;15.336;2022-08-19T05:48:29;21.00;99.90
3842;DHT22;1936;47.074;15.336;2022-08-19T05:50:35;21.10;99.90
3842;DHT22;1936;47.074;15.336;2022-08-19T05:52:39;21.10;99.90
3842;DHT22;1936;47.074;15.336;2022-08-19T05:54:46;21.20;99.90
3842;DHT22;1936;47.074;15.336;2022-08-19T05:56:53;21.30;99.90
3842;DHT22;1936;47.074;15.336;2022-08-19T05:58:58;21.40;99.90
3842;DHT22;1936;47.074;15.336;2022-08-19T06:01:08;21.40;99.90
3842;DHT22;1936;47.074;15.336;2022-08-19T06:03:12;21.50;99.90
3842;DHT22;1936;47.074;15.336;2022-08-19T06:05:16;21.40;99.90
3842;DHT22;1936;47.074;15.336;2022-08-19T06:07:20;21.40;99.90
3842;DHT22;1936;47.074;15.336;2022-08-19T06:09:24;21.40;99.90
3842;DHT22;1936;47.074;15.336;2022-08-19T06:11:34;21.40;99.90
3842;DHT22;1936;47.074;15.336;2022-08-19T06:13:39;21.50;99.90
3842;DHT22;1936;47.074;15.336;2022-08-19T06:15:43;21.70;99.90
3842;DHT22;1936;47.074;15.336;2022-08-19T06:17:49;22.10;99.90
3842;DHT22;1936;47.074;15.336;2022-08-19T06:19:56;22.50;99.90
3842;DHT22;1936;47.074;15.336;2022-08-19T06:22:02;22.50;99.90
3842;DHT22;1936;47.074;15.336;2022-08-19T06:24:09;22.80;99.90
3842;DHT22;1936;47.074;15.336;2022-08-19T06:26:15;22.80;99.90
3842;DHT22;1936;47.074;15.336;2022-08-19T06:28:19;23.00;99.90
3842;DHT22;1936;47.074;15.336;2022-08-19T06:30:25;23.00;99.90
3842;DHT22;1936;47.074;15.336;2022-08-19T06:32:29;23.10;99.90
3842;DHT22;1936;47.074;15.336;2022-08-19T06:34:35;23.00;99.90
3842;DHT22;1936;47.074;15.336;2022-08-19T06:36:41;23.00;99.90
3842;DHT22;1936;47.074;15.336;2022-08-19T06:38:46;22.90;99.90
3842;DHT22;1936;47.074;15.336;2022-08-19T06:40:50;22.80;99.90
3842;DHT22;1936;47.074;15.336;2022-08-19T06:42:54;23.10;99.90
3842;DHT22;1936;47.074;15.336;2022-08-19T06:45:02;23.30;99.90
3842;DHT22;1936;47.074;15.336;2022-08-19T06:47:13;23.60;99.90
3842;DHT22;1936;47.074;15.336;2022-08-19T06:49:29;23.70;99.90
3842;DHT22;1936;47.074;15.336;2022-08-19T06:51:36;23.30;99.90
3842;DHT22;1936;47.074;15.336;2022-08-19T06:53:44;23.30;99.90
3842;DHT22;1936;47.074;15.336;2022-08-19T06:55:49;23.30;99.90
3842;DHT22;1936;47.074;15.336;2022-08-19T06:58:05;23.10;99.90
3842;DHT22;1936;47.074;15.336;2022-08-19T07:00:09;22.90;99.90
3842;DHT22;1936;47.074;15.336;2022-08-19T07:02:14;22.80;99.90
3842;DHT22;1936;47.074;15.336;2022-08-19T07:04:24;22.80;99.90
3842;DHT22;1936;47.074;15.336;2022-08-19T07:06:28;22.60;99.90
3842;DHT22;1936;47.074;15.336;2022-08-19T07:08:47;22.40;99.90
3842;DHT22;1936;47.074;15.336;2022-08-19T07:10:57;22.30;99.90
3842;DHT22;1936;47.074;15.336;2022-08-19T07:13:10;22.20;99.90
3842;DHT22;1936;47.074;15.336;2022-08-19T07:15:15;22.10;99.90
3842;DHT22;1936;47.074;15.336;2022-08-19T07:17:20;22.00;99.90
3842;DHT22;1936;47.074;15.336;2022-08-19T07:19:25;21.90;99.90
3842;DHT22;1936;47.074;15.336;2022-08-19T07:21:29;21.90;99.90
3842;DHT22;1936;47.074;15.336;2022-08-19T07:23:38;21.90;99.90
3842;DHT22;1936;47.074;15.336;2022-08-19T07:25:46;21.90;99.90
3842;DHT22;1936;47.074;15.336;2022-08-19T07:27:54;21.90;99.90
3842;DHT22;1936;47.074;15.336;2022-08-19T07:29:57;22.00;99.90
3842;DHT22;1936;47.074;15.336;2022-08-19T07:32:04;21.90;99.90
3842;DHT22;1936;47.074;15.336;2022-08-19T07:34:15;21.90;99.90
3842;DHT22;1936;47.074;15.336;2022-08-19T07:36:23;21.90;99.90
3842;DHT22;1936;47.074;15.336;2022-08-19T07:38:27;21.80;99.90
3842;DHT22;1936;47.074;15.336;2022-08-19T07:40:33;21.80;99.90
3842;DHT22;1936;47.074;15.336;2022-08-19T07:42:39;21.80;99.90
3842;DHT22;1936;47.074;15.336;2022-08-19T07:44:43;21.80;99.90
3842;DHT22;1936;47.074;15.336;2022-08-19T07:46:53;21.60;99.90
3842;DHT22;1936;47.074;15.336;2022-08-19T07:48:57;21.50;99.90
3842;DHT22;1936;47.074;15.336;2022-08-19T07:51:05;21.60;99.90
3842;DHT22;1936;47.074;15.336;2022-08-19T07:53:09;21.50;99.90
3842;DHT22;1936;47.074;15.336;2022-08-19T07:55:14;21.40;99.90
3842;DHT22;1936;47.074;15.336;2022-08-19T07:57:39;21.40;99.90
3842;DHT22;1936;47.074;15.336;2022-08-19T07:59:45;21.40;99.90
3842;DHT22;1936;47.074;15.336;2022-08-19T08:01:49;21.40;99.90
3842;DHT22;1936;47.074;15.336;2022-08-19T08:03:55;21.40;99.90
3842;DHT22;1936;47.074;15.336;2022-08-19T08:06:17;21.40;99.90
3842;DHT22;1936;47.074;15.336;2022-08-19T08:11:00;21.30;99.90
3842;DHT22;1936;47.074;15.336;2022-08-19T08:13:10;21.00;99.90
3842;DHT22;1936;47.074;15.336;2022-08-19T08:15:16;20.90;99.90
3842;DHT22;1936;47.074;15.336;2022-08-19T08:17:25;20.80;99.90
3842;DHT22;1936;47.074;15.336;2022-08-19T08:19:49;20.70;99.90
3842;DHT22;1936;47.074;15.336;2022-08-19T08:21:54;20.60;99.90
3842;DHT22;1936;47.074;15.336;2022-08-19T08:23:58;20.50;99.90
3842;DHT22;1936;47.074;15.336;2022-08-19T08:26:06;20.50;99.90
3842;DHT22;1936;47.074;15.336;2022-08-19T08:28:11;20.40;99.90
3842;DHT22;1936;47.074;15.336;2022-08-19T08:30:21;20.60;99.90
3842;DHT22;1936;47.074;15.336;2022-08-19T08:32:35;20.50;99.90
3842;DHT22;1936;47.074;15.336;2022-08-19T08:34:42;20.60;99.90
3842;DHT22;1936;47.074;15.336;2022-08-19T08:36:53;20.70;99.90
3842;DHT22;1936;47.074;15.336;2022-08-19T08:38:57;20.80;99.90
3842;DHT22;1936;47.074;15.336;2022-08-19T08:41:10;21.10;99.90
3842;DHT22;1936;47.074;15.336;2022-08-19T08:45:36;21.40;99.90
3842;DHT22;1936;47.074;15.336;2022-08-19T08:47:47;21.70;99.90
3842;DHT22;1936;47.074;15.336;2022-08-19T08:49:56;22.00;99.90
3842;DHT22;1936;47.074;15.336;2022-08-19T08:52:15;22.40;99.90
3842;DHT22;1936;47.074;15.336;2022-08-19T08:56:38;23.20;99.90
3842;DHT22;1936;47.074;15.336;2022-08-19T08:58:50;24.00;99.90
3842;DHT22;1936;47.074;15.336;2022-08-19T09:00:55;24.70;99.90
3842;DHT22;1936;47.074;15.336;2022-08-19T09:03:00;24.80;99.90
3842;DHT22;1936;47.074;15.336;2022-08-19T09:05:06;24.90;99.90
3842;DHT22;1936;47.074;15.336;2022-08-19T09:09:40;24.30;99.90
3842;DHT22;1936;47.074;15.336;2022-08-19T09:11:56;23.80;99.90
3842;DHT22;1936;47.074;15.336;2022-08-19T09:14:24;23.40;99.90
3842;DHT22;1936;47.074;15.336;2022-08-19T09:16:54;23.20;99.90
3842;DHT22;1936;47.074;15.336;2022-08-19T09:19:02;22.80;99.90
3842;DHT22;1936;47.074;15.336;2022-08-19T09:21:07;22.90;99.90
3842;DHT22;1936;47.074;15.336;2022-08-19T09:25:27;23.40;99.90
3842;DHT22;1936;47.074;15.336;2022-08-19T09:27:36;23.60;99.90
3842;DHT22;1936;47.074;15.336;2022-08-19T09:29:56;24.50;99.90
3842;DHT22;1936;47.074;15.336;2022-08-19T09:31:59;25.40;99.90
3842;DHT22;1936;47.074;15.336;2022-08-19T09:34:03;26.00;99.90
3842;DHT22;1936;47.074;15.336;2022-08-19T09:36:09;26.40;99.90
3842;DHT22;1936;47.074;15.336;2022-08-19T09:38:24;26.20;99.90
3842;DHT22;1936;47.074;15.336;2022-08-19T09:40:29;25.70;99.90
3842;DHT22;1936;47.074;15.336;2022-08-19T09:42:39;25.50;99.90
3842;DHT22;1936;47.074;15.336;2022-08-19T09:44:51;25.50;99.90
3842;DHT22;1936;47.074;15.336;2022-08-19T09:46:56;25.50;99.90
3842;DHT22;1936;47.074;15.336;2022-08-19T09:49:00;25.60;99.90
3842;DHT22;1936;47.074;15.336;2022-08-19T09:51:09;25.50;99.90
3842;DHT22;1936;47.074;15.336;2022-08-19T09:53:15;25.30;99.90
3842;DHT22;1936;47.074;15.336;2022-08-19T09:55:18;25.10;99.90
3842;DHT22;1936;47.074;15.336;2022-08-19T09:57:25;25.00;99.90
3842;DHT22;1936;47.074;15.336;2022-08-19T09:59:29;25.10;99.90
3842;DHT22;1936;47.074;15.336;2022-08-19T10:01:35;24.80;99.90
3842;DHT22;1936;47.074;15.336;2022-08-19T10:03:40;24.70;99.90
3842;DHT22;1936;47.074;15.336;2022-08-19T10:05:44;24.70;99.90
3842;DHT22;1936;47.074;15.336;2022-08-19T10:07:56;24.60;99.90
3842;DHT22;1936;47.074;15.336;2022-08-19T10:10:06;24.50;99.90
3842;DHT22;1936;47.074;15.336;2022-08-19T10:12:11;24.50;99.90
3842;DHT22;1936;47.074;15.336;2022-08-19T10:14:21;24.50;99.90
3842;DHT22;1936;47.074;15.336;2022-08-19T10:16:26;24.60;99.90
3842;DHT22;1936;47.074;15.336;2022-08-19T10:18:31;24.60;99.90
3842;DHT22;1936;47.074;15.336;2022-08-19T10:20:37;24.60;99.90
3842;DHT22;1936;47.074;15.336;2022-08-19T10:22:41;24.50;99.90
3842;DHT22;1936;47.074;15.336;2022-08-19T10:24:46;24.60;99.90
3842;DHT22;1936;47.074;15.336;2022-08-19T10:26:51;24.40;99.90
3842;DHT22;1936;47.074;15.336;2022-08-19T10:29:00;24.30;99.90
3842;DHT22;1936;47.074;15.336;2022-08-19T10:31:11;24.30;99.90
3842;DHT22;1936;47.074;15.336;2022-08-19T10:33:20;24.30;99.90
3842;DHT22;1936;47.074;15.336;2022-08-19T10:35:49;24.40;99.90
3842;DHT22;1936;47.074;15.336;2022-08-19T10:37:58;24.40;99.90
3842;DHT22;1936;47.074;15.336;2022-08-19T10:42:10;24.20;99.90
3842;DHT22;1936;47.074;15.336;2022-08-19T10:44:15;24.40;99.90
3842;DHT22;1936;47.074;15.336;2022-08-19T10:48:25;25.00;99.90
3842;DHT22;1936;47.074;15.336;2022-08-19T10:50:29;25.60;99.90
3842;DHT22;1936;47.074;15.336;2022-08-19T10:52:52;26.00;99.90
3842;DHT22;1936;47.074;15.336;2022-08-19T10:54:57;26.60;99.90
3842;DHT22;1936;47.074;15.336;2022-08-19T10:57:18;27.00;99.90
3842;DHT22;1936;47.074;15.336;2022-08-19T10:59:24;27.50;99.90
3842;DHT22;1936;47.074;15.336;2022-08-19T11:03:39;27.20;99.90
3842;DHT22;1936;47.074;15.336;2022-08-19T11:05:45;27.30;99.90
3842;DHT22;1936;47.074;15.336;2022-08-19T11:07:53;27.20;99.90
3842;DHT22;1936;47.074;15.336;2022-08-19T11:09:57;27.00;99.90
3842;DHT22;1936;47.074;15.336;2022-08-19T11:12:01;27.10;99.90
3842;DHT22;1936;47.074;15.336;2022-08-19T11:14:06;27.50;99.90
3842;DHT22;1936;47.074;15.336;2022-08-19T11:16:12;27.70;99.90
3842;DHT22;1936;47.074;15.336;2022-08-19T11:18:17;28.00;99.30
3842;DHT22;1936;47.074;15.336;2022-08-19T11:20:20;28.40;99.90
3842;DHT22;1936;47.074;15.336;2022-08-19T11:22:25;28.40;98.30
3842;DHT22;1936;47.074;15.336;2022-08-19T11:24:43;28.60;99.90
3842;DHT22;1936;47.074;15.336;2022-08-19T11:26:47;28.60;99.10
3842;DHT22;1936;47.074;15.336;2022-08-19T11:28:52;28.60;96.60
3842;DHT22;1936;47.074;15.336;2022-08-19T11:30:57;28.40;96.00
3842;DHT22;1936;47.074;15.336;2022-08-19T11:33:01;27.80;98.40
3842;DHT22;1936;47.074;15.336;2022-08-19T11:35:05;27.90;98.50
3842;DHT22;1936;47.074;15.336;2022-08-19T11:37:09;27.90;98.40
3842;DHT22;1936;47.074;15.336;2022-08-19T11:39:17;27.60;96.20
3842;DHT22;1936;47.074;15.336;2022-08-19T11:41:24;27.30;99.10
3842;DHT22;1936;47.074;15.336;2022-08-19T11:43:28;27.20;99.90
3842;DHT22;1936;47.074;15.336;2022-08-19T11:45:38;27.80;99.90
3842;DHT22;1936;47.074;15.336;2022-08-19T11:47:41;28.00;99.90
3842;DHT22;1936;47.074;15.336;2022-08-19T11:51:50;28.50;96.60
3842;DHT22;1936;47.074;15.336;2022-08-19T11:53:56;29.30;95.70
3842;DHT22;1936;47.074;15.336;2022-08-19T11:58:06;30.90;90.00
3842;DHT22;1936;47.074;15.336;2022-08-19T12:00:19;30.90;90.40
3842;DHT22;1936;47.074;15.336;2022-08-19T12:04:28;30.60;88.60
3842;DHT22;1936;47.074;15.336;2022-08-19T12:06:33;30.70;89.30
3842;DHT22;1936;47.074;15.336;2022-08-19T12:10:41;31.20;78.30
3842;DHT22;1936;47.074;15.336;2022-08-19T12:12:48;31.50;77.50
3842;DHT22;1936;47.074;15.336;2022-08-19T12:17:06;31.20;78.60
3842;DHT22;1936;47.074;15.336;2022-08-19T12:19:11;31.30;77.70
3842;DHT22;1936;47.074;15.336;2022-08-19T12:21:27;31.10;79.50
3842;DHT22;1936;47.074;15.336;2022-08-19T12:23:31;30.70;77.60
3842;DHT22;1936;47.074;15.336;2022-08-19T12:25:35;31.30;84.60
3842;DHT22;1936;47.074;15.336;2022-08-19T12:27:39;31.70;78.50
3842;DHT22;1936;47.074;15.336;2022-08-19T12:29:53;31.80;74.10
3842;DHT22;1936;47.074;15.336;2022-08-19T12:34:05;30.90;73.90
3842;DHT22;1936;47.074;15.336;2022-08-19T12:38:17;31.30;79.30
3842;DHT22;1936;47.074;15.336;2022-08-19T12:40:22;30.30;72.90
3842;DHT22;1936;47.074;15.336;2022-08-19T12:42:27;30.10;75.30
3842;DHT22;1936;47.074;15.336;2022-08-19T12:44:31;30.40;83.40
3842;DHT22;1936;47.074;15.336;2022-08-19T12:52:51;31.50;71.80
3842;DHT22;1936;47.074;15.336;2022-08-19T12:57:00;31.70;71.20
3842;DHT22;1936;47.074;15.336;2022-08-19T12:59:04;31.20;71.50
3842;DHT22;1936;47.074;15.336;2022-08-19T13:01:11;30.90;66.40
3842;DHT22;1936;47.074;15.336;2022-08-19T13:03:18;31.20;74.80
3842;DHT22;1936;47.074;15.336;2022-08-19T13:05:26;31.10;66.20
3842;DHT22;1936;47.074;15.336;2022-08-19T13:07:31;31.10;69.10
3842;DHT22;1936;47.074;15.336;2022-08-19T13:09:35;30.60;66.60
3842;DHT22;1936;47.074;15.336;2022-08-19T13:11:39;30.20;73.00
3842;DHT22;1936;47.074;15.336;2022-08-19T13:13:47;30.70;73.40
3842;DHT22;1936;47.074;15.336;2022-08-19T13:15:59;31.10;67.60
3842;DHT22;1936;47.074;15.336;2022-08-19T13:18:04;31.20;66.30
3842;DHT22;1936;47.074;15.336;2022-08-19T13:20:09;31.20;68.40
3842;DHT22;1936;47.074;15.336;2022-08-19T13:22:15;31.10;66.30
3842;DHT22;1936;47.074;15.336;2022-08-19T13:24:19;30.70;64.00
3842;DHT22;1936;47.074;15.336;2022-08-19T13:26:32;30.10;67.80
3842;DHT22;1936;47.074;15.336;2022-08-19T13:28:36;29.80;74.60
3842;DHT22;1936;47.074;15.336;2022-08-19T13:30:56;29.60;67.90
3842;DHT22;1936;47.074;15.336;2022-08-19T13:33:18;29.10;69.60
3842;DHT22;1936;47.074;15.336;2022-08-19T13:35:21;29.20;71.50
3842;DHT22;1936;47.074;15.336;2022-08-19T13:37:28;29.20;75.60
3842;DHT22;1936;47.074;15.336;2022-08-19T13:39:43;29.60;75.20
3842;DHT22;1936;47.074;15.336;2022-08-19T13:41:49;29.80;74.00
3842;DHT22;1936;47.074;15.336;2022-08-19T13:43:54;30.30;71.60
3842;DHT22;1936;47.074;15.336;2022-08-19T13:45:58;30.40;70.50
3842;DHT22;1936;47.074;15.336;2022-08-19T13:48:06;30.80;70.40
3842;DHT22;1936;47.074;15.336;2022-08-19T13:50:11;30.70;69.30
3842;DHT22;1936;47.074;15.336;2022-08-19T13:52:15;30.40;67.70
3842;DHT22;1936;47.074;15.336;2022-08-19T13:54:21;30.20;69.70
3842;DHT22;1936;47.074;15.336;2022-08-19T13:56:25;30.00;67.90
3842;DHT22;1936;47.074;15.336;2022-08-19T13:58:30;30.40;70.20
3842;DHT22;1936;47.074;15.336;2022-08-19T14:00:38;30.50;71.50
3842;DHT22;1936;47.074;15.336;2022-08-19T14:02:46;30.40;72.40
3842;DHT22;1936;47.074;15.336;2022-08-19T14:04:50;30.20;68.60
3842;DHT22;1936;47.074;15.336;2022-08-19T14:06:54;30.00;68.60
3842;DHT22;1936;47.074;15.336;2022-08-19T14:08:58;29.80;67.80
3842;DHT22;1936;47.074;15.336;2022-08-19T14:11:05;29.70;75.70
3842;DHT22;1936;47.074;15.336;2022-08-19T14:13:09;29.90;72.00
3842;DHT22;1936;47.074;15.336;2022-08-19T14:15:16;30.10;71.50
3842;DHT22;1936;47.074;15.336;2022-08-19T14:17:20;30.00;72.90
3842;DHT22;1936;47.074;15.336;2022-08-19T14:19:24;29.70;66.60
3842;DHT22;1936;47.074;15.336;2022-08-19T14:21:30;29.80;69.60
3842;DHT22;1936;47.074;15.336;2022-08-19T14:23:45;29.60;71.30
3842;DHT22;1936;47.074;15.336;2022-08-19T14:25:50;29.80;74.20
3842;DHT22;1936;47.074;15.336;2022-08-19T14:27:56;29.60;71.80
3842;DHT22;1936;47.074;15.336;2022-08-19T14:30:00;29.60;71.70
3842;DHT22;1936;47.074;15.336;2022-08-19T14:32:05;29.50;72.30
3842;DHT22;1936;47.074;15.336;2022-08-19T14:34:12;29.60;71.30
3842;DHT22;1936;47.074;15.336;2022-08-19T14:36:17;29.60;75.80
3842;DHT22;1936;47.074;15.336;2022-08-19T14:38:22;29.80;73.20